createdAt,value
2022-08-14T00:02:03.055Z,99.90
2022-08-14T00:04:35.918Z,99.90
2022-08-14T00:07:11.720Z,99.90
2022-08-14T00:10:02.092Z,99.90
2022-08-14T00:12:53.366Z,99.90
2022-08-14T00:15:43.554Z,99.90
2022-08-14T00:19:06.808Z,99.90
2022-08-14T00:21:19.200Z,99.90
2022-08-14T00:23:54.039Z,99.90
2022-08-14T00:26:23.114Z,99.90
2022-08-14T00:28:51.610Z,99.90
2022-08-14T00:31:19.041Z,99.90
2022-08-14T00:33:52.186Z,99.90
2022-08-14T00:36:35.797Z,99.90
2022-08-14T00:39:12.994Z,99.90
2022-08-14T00:41:40.288Z,99.90
2022-08-14T00:44:10.482Z,99.90
2022-08-14T00:46:38.543Z,99.90
2022-08-14T00:49:11.563Z,99.90
2022-08-14T00:51:44.221Z,99.90
2022-08-14T00:54:20.903Z,99.90
2022-08-14T00:56:55.097Z,99.90
2022-08-14T00:59:28.433Z,99.90
2022-08-14T01:01:58.321Z,99.90
2022-08-14T01:04:38.431Z,99.90
2022-08-14T01:07:19.722Z,99.90
2022-08-14T01:09:52.830Z,99.90
2022-08-14T01:12:27.417Z,99.90
2022-08-14T01:15:02.470Z,99.90
2022-08-14T01:17:52.010Z,99.90
2022-08-14T01:20:41.037Z,99.90
2022-08-14T01:23:16.133Z,99.90
2022-08-14T01:25:51.235Z,99.90
2022-08-14T01:28:46.109Z,99.90
2022-08-14T01:31:09.569Z,99.90
2022-08-14T01:33:59.896Z,99.90
2022-08-14T01:36:32.243Z,99.90
2022-08-14T01:39:12.881Z,99.90
2022-08-14T01:41:42.622Z,99.90
2022-08-14T01:44:32.722Z,99.90
2022-08-14T01:47:21.923Z,99.90
2022-08-14T01:49:59.557Z,99.90
2022-08-14T01:52:59.208Z,99.90
2022-08-14T01:55:23.213Z,99.90
2022-08-14T01:58:02.314Z,99.90
2022-08-14T02:00:39.919Z,99.90
2022-08-14T02:03:07.324Z,99.90
2022-08-14T02:05:35.847Z,99.90
2022-08-14T02:08:08.959Z,99.90
2022-08-14T02:10:46.402Z,99.90
2022-08-14T02:13:18.977Z,99.90
2022-08-14T02:15:48.657Z,99.90
2022-08-14T02:18:16.342Z,99.90
2022-08-14T02:20:47.640Z,99.90
2022-08-14T02:23:15.209Z,99.90
2022-08-14T02:25:44.160Z,99.90
2022-08-14T02:28:56.918Z,99.90
2022-08-14T02:31:09.487Z,99.90
2022-08-14T02:33:39.243Z,99.90
2022-08-14T02:37:02.676Z,99.90
2022-08-14T02:38:57.472Z,99.90
2022-08-14T02:41:28.622Z,99.90
2022-08-14T02:44:00.818Z,99.90
2022-08-14T02:46:32.590Z,99.90
2022-08-14T02:49:06.233Z,99.90
2022-08-14T02:51:34.962Z,99.90
2022-08-14T02:54:05.702Z,99.90
2022-08-14T02:57:15.641Z,99.90
2022-08-14T02:59:23.312Z,99.90
2022-08-14T03:01:54.592Z,99.90
2022-08-14T03:04:22.871Z,99.90
2022-08-14T03:06:57.668Z,99.90
2022-08-14T03:09:42.309Z,99.90
2022-08-14T03:12:17.897Z,99.90
2022-08-14T03:15:06.537Z,99.90
2022-08-14T03:17:41.031Z,99.90
2022-08-14T03:20:23.870Z,99.90
2022-08-14T03:22:54.431Z,99.90
2022-08-14T03:25:23.032Z,99.90
2022-08-14T03:27:59.114Z,99.90
2022-08-14T03:30:37.179Z,99.90
2022-08-14T03:33:11.770Z,99.90
2022-08-14T03:36:00.168Z,99.90
2022-08-14T03:39:16.158Z,99.90
2022-08-14T03:41:23.320Z,99.90
2022-08-14T03:43:57.861Z,99.90
2022-08-14T03:46:52.395Z,99.90
2022-08-14T03:49:29.207Z,99.90
2022-08-14T03:52:07.712Z,99.90
2022-08-14T03:54:52.577Z,99.90
2022-08-14T03:57:20.241Z,99.90
2022-08-14T03:59:51.061Z,99.90
2022-08-14T04:02:32.216Z,99.90
2022-08-14T04:05:11.949Z,99.90
2022-08-14T04:07:41.492Z,99.90
2022-08-14T04:10:17.637Z,99.90
2022-08-14T04:13:03.605Z,99.90
2022-08-14T04:15:55.907Z,99.90
2022-08-14T04:18:19.907Z,99.90
2022-08-14T04:20:54.982Z,99.90
2022-08-14T04:23:29.519Z,99.90
2022-08-14T04:26:02.036Z,99.90
2022-08-14T04:29:01.466Z,99.90
2022-08-14T04:31:18.284Z,99.90
2022-08-14T04:33:53.301Z,99.90
2022-08-14T04:36:21.060Z,99.90
2022-08-14T04:39:09.759Z,99.90
2022-08-14T04:41:57.864Z,99.90
2022-08-14T04:44:35.989Z,99.90
2022-08-14T04:47:23.803Z,99.90
2022-08-14T04:49:57.029Z,99.90
2022-08-14T04:52:25.437Z,99.90
2022-08-14T04:54:54.741Z,99.90
2022-08-14T04:57:22.752Z,99.90
2022-08-14T04:59:52.735Z,99.90
2022-08-14T05:02:21.563Z,99.90
2022-08-14T05:04:56.891Z,99.90
2022-08-14T05:07:53.972Z,99.90
2022-08-14T05:10:16.494Z,99.90
2022-08-14T05:13:13.308Z,99.90
2022-08-14T05:15:40.804Z,99.90
2022-08-14T05:18:17.640Z,99.90
2022-08-14T05:21:57.087Z,99.90
2022-08-14T05:23:55.510Z,99.90
2022-08-14T05:26:23.522Z,99.90
2022-08-14T05:28:52.123Z,99.90
2022-08-14T05:31:21.221Z,99.90
2022-08-14T05:33:56.788Z,99.90
2022-08-14T05:36:27.239Z,99.90
2022-08-14T05:38:55.550Z,99.90
2022-08-14T05:41:23.153Z,99.90
2022-08-14T05:43:55.770Z,99.90
2022-08-14T05:46:23.378Z,99.90
2022-08-14T08:45:30.533Z,93.40
2022-08-14T08:48:00.126Z,93.50
2022-08-14T08:53:04.400Z,93.50
2022-08-14T08:55:41.055Z,93.50
2022-08-14T08:58:16.643Z,93.50
2022-08-14T09:00:54.651Z,92.80
2022-08-14T09:03:27.560Z,93.10
2022-08-14T09:06:01.564Z,92.80
2022-08-14T09:08:32.973Z,92.20
2022-08-14T09:11:19.347Z,92.00
2022-08-14T09:13:53.478Z,91.30
2022-08-14T09:16:23.656Z,91.60
2022-08-14T09:18:55.069Z,91.30
2022-08-14T09:21:24.901Z,91.20
2022-08-14T09:24:29.653Z,90.30
2022-08-14T09:26:49.190Z,90.80
2022-08-14T09:29:22.832Z,90.80
2022-08-14T09:31:57.051Z,90.50
2022-08-14T09:35:08.495Z,90.00
2022-08-14T09:37:51.284Z,89.10
2022-08-14T09:40:53.012Z,90.20
2022-08-14T09:43:44.715Z,89.00
2022-08-14T09:46:17.007Z,89.60
2022-08-14T09:49:02.987Z,88.80
2022-08-14T09:51:44.742Z,88.70
2022-08-14T09:54:22.965Z,88.80
2022-08-14T09:56:57.358Z,87.70
2022-08-14T09:59:33.504Z,86.90
2022-08-14T10:02:04.203Z,86.80
2022-08-14T10:04:40.161Z,87.00
2022-08-14T10:07:13.433Z,86.50
2022-08-14T10:09:57.643Z,85.80
2022-08-14T10:12:45.156Z,85.40
2022-08-14T10:15:18.422Z,85.00
2022-08-14T10:17:48.006Z,85.20
2022-08-14T10:20:40.808Z,85.10
2022-08-14T10:23:18.370Z,83.50
2022-08-14T10:25:52.942Z,83.90
2022-08-14T10:29:03.901Z,83.30
2022-08-14T10:31:25.692Z,81.40
2022-08-14T10:34:29.173Z,80.70
2022-08-14T10:37:14.570Z,80.80
2022-08-14T10:40:01.404Z,81.10
2022-08-14T10:42:39.021Z,80.50
2022-08-14T10:45:24.283Z,80.10
2022-08-14T10:48:08.621Z,79.40
2022-08-14T10:50:42.534Z,78.20
2022-08-14T10:53:10.041Z,75.70
2022-08-14T10:55:45.397Z,75.70
2022-08-14T10:58:14.987Z,76.00
2022-08-14T11:00:57.088Z,75.10
2022-08-14T11:03:35.755Z,74.60
2022-08-14T11:06:24.742Z,73.80
2022-08-14T11:08:54.438Z,73.90
2022-08-14T11:11:23.078Z,72.40
2022-08-14T11:13:51.631Z,72.30
2022-08-14T11:16:19.619Z,72.60
2022-08-14T11:18:51.084Z,72.80
2022-08-14T11:21:24.453Z,72.20
2022-08-14T11:23:59.083Z,71.40
2022-08-14T11:26:30.277Z,71.00
2022-08-14T11:29:01.332Z,70.40
2022-08-14T11:31:38.525Z,71.30
2022-08-14T11:34:10.450Z,70.90
2022-08-14T11:37:02.920Z,71.30
2022-08-14T11:39:42.957Z,71.70
2022-08-14T11:43:07.894Z,71.40
2022-08-14T11:45:17.036Z,70.20
2022-08-14T11:48:13.003Z,71.20
2022-08-14T11:50:37.765Z,71.50
2022-08-14T11:53:08.760Z,71.90
2022-08-14T11:55:39.577Z,71.90
2022-08-14T11:58:23.955Z,70.30
2022-08-14T12:01:03.129Z,70.10
2022-08-14T12:03:51.547Z,70.50
2022-08-14T12:06:28.824Z,70.50
2022-08-14T12:09:08.514Z,70.90
2022-08-14T12:11:47.424Z,70.50
2022-08-14T12:14:29.784Z,70.80
2022-08-14T12:17:09.484Z,71.00
2022-08-14T12:19:56.718Z,70.50
2022-08-14T12:22:42.350Z,70.70
2022-08-14T12:25:15.806Z,71.80
2022-08-14T12:27:53.266Z,71.30
2022-08-14T12:30:43.297Z,70.70
2022-08-14T12:33:33.015Z,70.40
2022-08-14T12:36:05.526Z,70.50
2022-08-14T12:38:45.924Z,70.20
2022-08-14T12:41:22.153Z,69.20
2022-08-14T12:44:02.088Z,69.10
2022-08-14T12:46:37.229Z,68.50
2022-08-14T12:49:19.848Z,68.90
2022-08-14T12:51:57.492Z,68.70
2022-08-14T12:54:32.327Z,67.60
2022-08-14T12:57:20.530Z,67.80
2022-08-14T12:59:50.631Z,68.10
2022-08-14T13:02:30.137Z,69.00
2022-08-14T13:05:00.668Z,69.00
2022-08-14T13:07:32.534Z,69.40
2022-08-14T13:10:46.191Z,69.80
2022-08-14T13:13:13.188Z,69.80
2022-08-14T13:15:41.253Z,70.00
2022-08-14T13:18:11.570Z,70.00
2022-08-14T13:20:48.040Z,70.10
2022-08-14T13:23:30.450Z,70.10
2022-08-14T13:26:02.970Z,70.30
2022-08-14T13:28:33.554Z,70.80
2022-08-14T13:31:09.001Z,70.80
2022-08-14T13:33:41.269Z,70.60
2022-08-14T13:36:23.613Z,70.80
2022-08-14T13:38:53.866Z,70.70
2022-08-14T13:41:31.532Z,70.00
2022-08-14T13:44:02.118Z,70.40
2022-08-14T13:46:30.146Z,70.50
2022-08-14T13:48:59.961Z,70.40
2022-08-14T13:51:32.931Z,70.10
2022-08-14T13:54:10.780Z,70.70
2022-08-14T13:56:41.939Z,69.80
2022-08-14T13:59:10.770Z,70.40
2022-08-14T14:01:43.778Z,70.50
2022-08-14T14:04:19.961Z,70.50
2022-08-14T14:06:51.196Z,70.50
2022-08-14T14:09:37.670Z,70.70
2022-08-14T14:12:36.481Z,70.80
2022-08-14T14:15:10.099Z,71.00
2022-08-14T14:17:39.484Z,71.30
2022-08-14T14:20:15.118Z,71.50
2022-08-14T14:23:02.181Z,71.80
2022-08-14T14:25:45.608Z,72.00
2022-08-14T14:28:24.275Z,72.10
2022-08-14T14:30:57.521Z,72.30
2022-08-14T14:33:49.036Z,72.30
2022-08-14T14:36:22.081Z,72.20
2022-08-14T14:39:01.497Z,72.50
2022-08-14T14:41:38.042Z,72.80
2022-08-14T14:44:16.054Z,73.50
2022-08-14T14:46:50.453Z,73.10
2022-08-14T14:49:21.757Z,72.60
2022-08-14T14:51:51.550Z,72.70
2022-08-14T14:54:30.802Z,72.30
2022-08-14T14:57:02.385Z,72.40
2022-08-14T14:59:35.789Z,72.40
2022-08-14T15:02:09.321Z,72.40
2022-08-14T15:04:38.733Z,72.30
2022-08-14T15:07:12.560Z,72.10
2022-08-14T15:09:42.703Z,71.70
2022-08-14T15:12:28.006Z,71.60
2022-08-14T15:15:08.842Z,71.50
2022-08-14T15:17:41.675Z,71.10
2022-08-14T15:20:17.581Z,70.90
2022-08-14T15:23:12.151Z,71.10
2022-08-14T15:25:42.100Z,71.10
2022-08-14T15:28:21.435Z,71.00
2022-08-14T15:30:51.201Z,70.80
2022-08-14T15:34:13.427Z,71.00
2022-08-14T15:36:36.560Z,71.00
2022-08-14T15:39:06.147Z,71.20
2022-08-14T15:41:41.470Z,71.20
2022-08-14T15:44:25.173Z,71.20
2022-08-14T15:46:54.212Z,71.70
2022-08-14T15:49:24.651Z,71.70
2022-08-14T15:51:58.769Z,71.80
2022-08-14T15:54:31.446Z,72.00
2022-08-14T15:57:08.988Z,71.80
2022-08-14T15:59:56.430Z,71.80
2022-08-14T16:02:27.664Z,71.80
2022-08-14T16:04:55.302Z,71.70
2022-08-14T16:07:25.121Z,71.30
2022-08-14T16:10:18.577Z,71.00
2022-08-14T16:12:47.769Z,70.80
2022-08-14T16:15:17.185Z,70.80
2022-08-14T16:17:47.553Z,71.00
2022-08-14T16:20:42.236Z,71.40
2022-08-14T16:23:11.766Z,71.80
2022-08-14T16:25:44.497Z,71.80
2022-08-14T16:28:27.571Z,71.90
2022-08-14T16:30:56.768Z,73.30
2022-08-14T16:33:57.926Z,73.80
2022-08-14T16:36:31.224Z,73.70
2022-08-14T16:39:02.562Z,73.60
2022-08-14T16:41:30.365Z,74.20
2022-08-14T16:44:13.786Z,74.30
2022-08-14T16:46:55.187Z,74.50
2022-08-14T16:50:03.392Z,74.40
2022-08-14T16:52:25.012Z,74.70
2022-08-14T16:54:55.110Z,75.20
2022-08-14T16:57:26.229Z,75.20
2022-08-14T16:59:59.085Z,75.40
2022-08-14T17:03:01.633Z,75.70
2022-08-14T17:05:31.200Z,76.30
2022-08-14T17:08:32.511Z,76.80
2022-08-14T17:11:05.834Z,77.70
2022-08-14T17:13:58.867Z,77.90
2022-08-14T17:16:38.169Z,78.20
2022-08-14T17:19:14.143Z,78.10
2022-08-14T17:21:48.253Z,78.90
2022-08-14T17:24:55.832Z,79.40
2022-08-14T17:27:18.453Z,79.70
2022-08-14T17:29:57.765Z,79.70
2022-08-14T17:32:44.230Z,79.40
2022-08-14T17:35:57.628Z,79.70
2022-08-14T17:38:33.669Z,80.00
2022-08-14T17:41:27.002Z,79.90
2022-08-14T17:46:45.255Z,80.70
2022-08-14T17:49:18.043Z,80.00
2022-08-14T17:52:07.543Z,80.80
2022-08-14T17:54:52.671Z,80.40
2022-08-14T17:57:35.518Z,80.10
2022-08-14T18:00:19.557Z,80.00
2022-08-14T18:02:57.528Z,80.90
2022-08-14T18:06:06.937Z,80.90
2022-08-14T18:08:32.218Z,81.30
2022-08-14T18:11:05.156Z,81.10
2022-08-14T18:13:51.919Z,81.00
2022-08-14T18:16:22.983Z,81.30
2022-08-14T18:18:53.800Z,81.70
2022-08-14T18:21:41.502Z,81.60
2022-08-14T18:24:28.653Z,81.40
2022-08-14T18:27:17.175Z,82.50
2022-08-14T18:29:58.025Z,82.60
2022-08-14T18:32:33.515Z,82.50
2022-08-14T18:35:13.121Z,82.50
2022-08-14T18:37:55.743Z,82.80
2022-08-14T18:40:38.246Z,82.70
2022-08-14T18:43:07.360Z,82.80
2022-08-14T18:45:54.707Z,83.80
2022-08-14T18:48:33.456Z,83.90
2022-08-14T18:51:14.025Z,83.50
2022-08-14T18:54:00.700Z,84.40
2022-08-14T18:57:05.185Z,84.30
2022-08-14T18:59:42.364Z,84.60
2022-08-14T19:02:30.454Z,84.50
2022-08-14T19:05:03.008Z,85.30
2022-08-14T19:07:36.067Z,84.80
2022-08-14T19:10:16.789Z,84.80
2022-08-14T19:12:56.315Z,85.00
2022-08-14T19:15:28.147Z,85.70
2022-08-14T19:18:14.212Z,85.20
2022-08-14T19:20:54.235Z,85.30
2022-08-14T19:23:42.132Z,85.50
2022-08-14T19:26:35.253Z,85.40
2022-08-14T19:29:37.700Z,86.90
2022-08-14T19:32:40.465Z,86.70
2022-08-14T19:35:21.768Z,87.10
2022-08-14T19:37:59.406Z,87.00
2022-08-14T19:40:46.483Z,87.30
2022-08-14T19:43:55.367Z,87.80
2022-08-14T19:46:38.942Z,87.40
2022-08-14T19:49:06.135Z,87.40
2022-08-14T19:51:43.844Z,88.00
2022-08-14T19:54:15.639Z,88.40
2022-08-14T19:56:46.912Z,88.70
2022-08-14T19:59:26.890Z,88.50
2022-08-14T20:02:10.107Z,88.40
2022-08-14T20:04:59.047Z,88.60
2022-08-14T20:07:58.864Z,88.70
2022-08-14T20:11:04.041Z,89.40
2022-08-14T20:13:33.208Z,89.40
2022-08-14T20:16:11.977Z,89.30
2022-08-14T20:18:49.255Z,89.70
2022-08-14T20:21:22.762Z,89.60
2022-08-14T20:24:41.772Z,89.50
2022-08-14T20:27:33.866Z,90.00
2022-08-14T20:30:34.689Z,90.00
2022-08-14T20:33:11.241Z,89.90
2022-08-14T20:35:42.906Z,90.10
2022-08-14T20:38:31.684Z,90.10
2022-08-14T20:41:06.642Z,90.20
2022-08-14T20:44:00.907Z,90.30
2022-08-14T20:46:42.591Z,90.60
2022-08-14T20:49:18.653Z,90.60
2022-08-14T20:52:05.219Z,90.50
2022-08-14T20:54:51.917Z,90.60
2022-08-14T20:57:23.259Z,90.60
2022-08-14T20:59:58.588Z,90.80
2022-08-14T21:02:46.656Z,90.70
2022-08-14T21:05:33.789Z,90.80
2022-08-14T21:08:09.778Z,90.80
2022-08-14T21:11:04.344Z,90.90
2022-08-14T21:14:19.469Z,90.90
2022-08-14T21:16:34.227Z,91.10
2022-08-14T21:19:08.612Z,91.10
2022-08-14T21:21:41.272Z,91.10
2022-08-14T21:24:40.154Z,91.20
2022-08-14T21:27:20.384Z,91.30
2022-08-14T21:29:56.836Z,91.90
2022-08-14T21:32:36.537Z,91.80
2022-08-14T21:35:24.111Z,91.80
2022-08-14T21:38:00.306Z,91.90
2022-08-14T21:40:46.424Z,91.90
2022-08-14T21:43:18.839Z,91.90
2022-08-14T21:45:54.046Z,92.00
2022-08-14T21:48:32.349Z,92.10
2022-08-14T21:51:54.577Z,92.00
2022-08-14T21:54:04.126Z,92.00
2022-08-14T21:56:39.734Z,92.00
2022-08-14T21:59:24.997Z,92.10
2022-08-14T22:02:03.719Z,92.40
2022-08-14T22:04:40.695Z,92.60
2022-08-14T22:07:16.727Z,92.60
2022-08-14T22:09:55.204Z,92.50
2022-08-14T22:12:57.833Z,92.60
2022-08-14T22:18:09.607Z,92.80
2022-08-14T22:20:53.801Z,92.90
2022-08-14T22:23:27.162Z,93.10
2022-08-14T22:26:03.231Z,93.10
2022-08-14T22:28:38.267Z,93.10
2022-08-14T22:31:35.223Z,93.10
2022-08-14T22:34:15.883Z,93.10
2022-08-14T22:36:52.559Z,93.30
2022-08-14T22:40:14.563Z,93.40
2022-08-14T22:42:22.870Z,93.50
2022-08-14T22:44:56.536Z,93.60
2022-08-14T22:47:40.666Z,93.60
2022-08-14T22:50:31.114Z,93.50
2022-08-14T22:53:08.065Z,93.70
2022-08-14T22:55:47.957Z,93.80
2022-08-14T22:58:34.750Z,93.80
2022-08-14T23:01:10.607Z,93.80
2022-08-14T23:03:46.978Z,93.90
2022-08-14T23:07:03.441Z,94.10
2022-08-14T23:09:35.958Z,94.10
2022-08-14T23:12:27.415Z,94.10
2022-08-14T23:17:46.583Z,94.30
2022-08-14T23:20:29.451Z,94.30
2022-08-14T23:23:03.425Z,94.30
2022-08-14T23:25:58.948Z,94.40
2022-08-14T23:28:33.802Z,94.40
2022-08-14T23:31:34.285Z,94.70
2022-08-14T23:34:11.167Z,94.80
2022-08-14T23:36:53.040Z,95.00
2022-08-14T23:42:17.829Z,95.00
2022-08-14T23:44:53.698Z,95.10
2022-08-14T23:47:26.861Z,95.30
2022-08-14T23:50:03.572Z,95.30
2022-08-14T23:52:50.820Z,95.40
2022-08-14T23:55:36.312Z,95.50
2022-08-14T23:58:29.556Z,95.50
